Airfield :
LOGIN :

Register | Disclaimer

   EN    FR    IT 

 










Legend :    VFR   Marginal VFR   IFR   Intensive IFR   Very Intensive IFR
Visi :
Ceiling :
>= 8 km
>= 3000ft
5 to 8 km
1000 to 3000 ft
1500m to 5 km
500 to 1000 ft
800 to 1500m
200 to 500 ft
< 800m
< 200 ft
Symbols :   Thunderstorms  Fog  Heavy snow  Heavy precipitations  Wind > 20 kt
SIGMETs :     Misc.  Thunderstorms  Icing  Turbulence  Mountain Waves  Volcanic Ashes






- Airport Elevation : 53 ft
- IATA code : AGP


LEMG - Malaga

CURRENT METAR :
  • 220400Z 28003KT 9999 -RA FEW008 SCT015CB BKN060 09/09 Q1015 RERA NOSIG

EXPIRED METARs :
  • 220330Z 00000KT 8000 RA FEW012 SCT030CB BKN040 10/09 Q1015 RETS NOSIG
  • 220318Z 00000KT 8000 TSRA FEW012 SCT030CB BKN040 10/09 Q1015 NOSIG
  • 220300Z VRB02KT 8000 RA BKN014 10/09 Q1015 RETS NOSIG
  • 220249Z 09004KT 050V150 8000 RA BKN014 10/09 Q1015 RETS NOSIG
  • 220240Z 09008KT 8000 RA BKN014 SCT020CB 10/09 Q1015 RETS NOSIG
  • 220227Z 08009KT 050V110 9999 TSRA BKN014 SCT019CB 10/09 Q1015 NOSIG
  • 220206Z 09008KT 9999 RA BKN014 SCT017CB 10/09 Q1015 NOSIG
  • 220200Z 09008KT 9999 -RA VCTS BKN015 SCT020CB 10/09 Q1015 RERA NOSIG
  • 220146Z 10009KT 9999 -RA BKN015 10/09 Q1015 RERA NOSIG
  • 220130Z 09008KT 9000 -RA FEW017 SCT020CB BKN030 10/09 Q1015 RERA NOSIG

TAF COR TAF LEMG
Valid from the 22 at 00:00 until the 23 at 00:00 UTC


212300Z 2200/2224 12009KT 9999 FEW030 SCT050 TX15/2212Z TN09/2206Z
TEMPO 2200/2218 4000 SHRA SCT020 BKN030TCU
TEMPO 2200/2204 VRB02KT
PROB40
TEMPO 2200/2218 2000 TSRA FEW020CB
BECMG 2212/2214 29010KT



MET'MAP, your aeronautical weather chart ! - Copyright ORBIFLY December 2007 - Disclaimer

ORBIFLY MET'MAP TEAM :

Programming & Development : Alexandra Zaïnal
Concept & original design : Baudouin d'Aumeries
Assistance for programming : Marc-Olivier Méhu
Technical & hardware support : Manuel Goepfert

Contact : metmap@orbifly.com




SOURCES & CREDITS :

   NOAA